Ilyinskiy, Russia
Current Conditions -  °F | °C
As of 8:00 AM on Sunday 26 Oct 2014 (Local Time) from UHSS Reporting Station
Broken Clouds Broken Clouds  
Wind Chill: 36°   Ceiling: 1800
Heat Index: 43°   Visibility: 5mi
Dew Point: 41°   Wind: 13mph
Humidity: 93%   Direction: 10°N
Pressure: 30"   Gusts: NA
Location:  47.98°N, 142.2°E
Report Text: UHSS 252100Z 01006MPS 8000 BKN018CB 06/05 Q1016 NOSIG RMK MTOBSC QFE760/1014 01250255
Loading
Personal Weather Stations






























Interactive Weather Map
Tropical Storm Tracking
New forecast layout! Learn more

10-Day Weather Forecast

Advertisements
Track Severe Weather on mobile